createdAt,value
2023-05-05T00:01:22.636Z,4.20
2023-05-05T00:03:49.447Z,4.17
2023-05-05T00:06:16.175Z,3.97
2023-05-05T00:08:42.814Z,3.83
2023-05-05T00:11:09.718Z,3.63
2023-05-05T00:13:36.350Z,5.17
2023-05-05T00:16:03.243Z,3.87
2023-05-05T00:18:31.237Z,4.33
2023-05-05T00:20:57.918Z,3.80
2023-05-05T00:23:24.674Z,4.77
2023-05-05T00:25:51.392Z,4.90
2023-05-05T00:28:18.048Z,6.47
2023-05-05T00:30:44.793Z,5.60
2023-05-05T00:33:11.440Z,5.40
2023-05-05T00:35:39.459Z,5.63
2023-05-05T00:38:06.421Z,5.20
2023-05-05T00:40:33.333Z,3.80
2023-05-05T00:43:00.042Z,3.60
2023-05-05T00:45:26.877Z,4.60
2023-05-05T00:47:54.768Z,4.13
2023-05-05T00:50:23.693Z,5.60
2023-05-05T00:52:54.055Z,6.10
2023-05-05T00:55:21.194Z,4.03
2023-05-05T00:57:48.749Z,4.33
2023-05-05T01:00:16.015Z,5.07
2023-05-05T01:02:42.806Z,4.57
2023-05-05T01:05:10.763Z,3.93
2023-05-05T01:07:54.678Z,6.27
2023-05-05T01:10:32.746Z,5.60
2023-05-05T01:13:11.321Z,4.67
2023-05-05T01:15:44.781Z,5.43
2023-05-05T01:18:19.502Z,5.33
2023-05-05T01:20:53.943Z,4.50
2023-05-05T01:23:37.181Z,4.83
2023-05-05T01:26:21.513Z,5.17
2023-05-05T01:29:22.296Z,4.97
2023-05-05T01:31:53.426Z,4.43
2023-05-05T01:34:24.208Z,4.50
2023-05-05T01:36:58.206Z,5.03
2023-05-05T01:39:27.887Z,5.47
2023-05-05T01:41:59.429Z,4.77
2023-05-05T01:44:28.660Z,4.90
2023-05-05T01:46:59.095Z,4.97
2023-05-05T01:49:27.082Z,4.70
2023-05-05T01:51:55.777Z,4.13
2023-05-05T01:54:24.144Z,5.20
2023-05-05T01:56:54.237Z,4.13
2023-05-05T01:59:22.096Z,4.80
2023-05-05T02:01:50.442Z,4.60
2023-05-05T02:04:19.881Z,4.97
2023-05-05T02:06:48.046Z,4.10
2023-05-05T02:09:15.665Z,5.20
2023-05-05T02:11:42.793Z,4.80
2023-05-05T02:14:11.206Z,5.20
2023-05-05T02:16:38.625Z,5.63
2023-05-05T02:19:06.095Z,5.30
2023-05-05T02:21:34.641Z,4.80
2023-05-05T02:24:01.781Z,3.77
2023-05-05T02:26:31.289Z,5.13
2023-05-05T02:29:03.145Z,4.90
2023-05-05T02:31:32.392Z,5.53
2023-05-05T02:34:01.621Z,5.10
2023-05-05T02:36:32.578Z,4.50
2023-05-05T02:39:02.736Z,5.00
2023-05-05T02:41:31.360Z,4.47
2023-05-05T02:44:00.764Z,5.47
2023-05-05T02:46:28.240Z,4.00
2023-05-05T02:48:55.117Z,5.43
2023-05-05T02:51:21.771Z,4.47
2023-05-05T02:53:48.818Z,4.63
2023-05-05T02:56:26.623Z,5.13
2023-05-05T02:58:59.459Z,4.47
2023-05-05T03:01:33.217Z,5.00
2023-05-05T03:04:06.298Z,4.43
2023-05-05T03:06:39.113Z,4.40
2023-05-05T03:09:09.531Z,4.10
2023-05-05T03:11:42.068Z,5.47
2023-05-05T03:14:11.471Z,4.10
2023-05-05T03:16:40.700Z,4.80
2023-05-05T03:19:10.211Z,3.60
2023-05-05T03:21:37.222Z,4.77
2023-05-05T03:24:12.948Z,5.50
2023-05-05T03:26:41.012Z,4.40
2023-05-05T03:29:07.931Z,4.57
2023-05-05T03:31:34.640Z,5.23
2023-05-05T03:34:01.569Z,5.23
2023-05-05T03:36:29.415Z,4.90
2023-05-05T03:38:56.227Z,4.67
2023-05-05T03:41:23.127Z,4.20
2023-05-05T03:43:51.618Z,4.60
2023-05-05T03:46:18.523Z,4.53
2023-05-05T03:48:45.287Z,4.67
2023-05-05T03:51:12.871Z,4.97
2023-05-05T03:53:39.542Z,4.07
2023-05-05T03:56:06.450Z,3.47
2023-05-05T03:58:33.242Z,4.50
2023-05-05T04:01:01.197Z,4.70
2023-05-05T04:03:27.957Z,4.70
2023-05-05T04:05:54.658Z,3.57
2023-05-05T04:08:21.334Z,4.40
2023-05-05T04:10:48.025Z,5.03
2023-05-05T04:13:14.724Z,4.47
2023-05-05T04:15:44.927Z,4.50
2023-05-05T04:18:13.173Z,5.40
2023-05-05T04:20:39.838Z,5.20
2023-05-05T04:23:06.566Z,5.03
2023-05-05T04:25:33.590Z,4.30
2023-05-05T04:28:00.310Z,4.97
2023-05-05T04:30:26.961Z,4.70
2023-05-05T04:32:53.728Z,4.70
2023-05-05T04:35:21.949Z,4.60
2023-05-05T04:37:48.633Z,5.63
2023-05-05T04:40:15.574Z,6.23
2023-05-05T04:42:42.254Z,5.40
2023-05-05T04:45:09.613Z,5.40
2023-05-05T04:47:40.207Z,4.67
2023-05-05T04:50:08.112Z,5.20
2023-05-05T04:52:36.331Z,6.63
2023-05-05T04:55:03.224Z,4.90
2023-05-05T04:57:30.134Z,5.37
2023-05-05T04:59:56.839Z,5.73
2023-05-05T05:02:23.675Z,4.97
2023-05-05T05:04:50.408Z,6.10
2023-05-05T05:07:17.062Z,5.93
2023-05-05T05:09:45.030Z,5.37
2023-05-05T05:12:11.731Z,7.00
2023-05-05T05:14:38.581Z,4.87
2023-05-05T05:17:06.486Z,5.07
2023-05-05T05:19:33.192Z,5.70
2023-05-05T05:21:59.869Z,5.57
2023-05-05T05:24:26.676Z,4.97
2023-05-05T05:26:54.658Z,4.80
2023-05-05T05:29:21.317Z,5.10
2023-05-05T05:31:47.983Z,5.20
2023-05-05T05:34:14.744Z,5.80
2023-05-05T05:36:41.495Z,5.73
2023-05-05T05:39:08.139Z,5.33
2023-05-05T05:41:34.784Z,4.80
2023-05-05T05:44:02.765Z,5.63
2023-05-05T05:46:29.470Z,5.60
2023-05-05T05:48:56.255Z,5.80
2023-05-05T05:51:23.009Z,7.40
2023-05-05T05:53:49.667Z,5.57
2023-05-05T05:56:16.310Z,4.83
2023-05-05T05:58:42.985Z,4.70
2023-05-05T06:01:10.975Z,5.77
2023-05-05T06:03:37.771Z,5.30
2023-05-05T06:06:04.549Z,5.27
2023-05-05T06:08:31.276Z,5.70
2023-05-05T06:10:57.937Z,5.33
2023-05-05T06:13:24.558Z,6.00
2023-05-05T06:15:51.345Z,6.93
2023-05-05T06:18:19.446Z,5.40
2023-05-05T06:20:49.233Z,5.67
2023-05-05T06:24:18.520Z,5.77
2023-05-05T06:26:31.762Z,5.40
2023-05-05T06:28:58.499Z,6.00
2023-05-05T06:31:25.289Z,6.57
2023-05-05T06:33:53.321Z,5.60
2023-05-05T06:36:20.057Z,6.00
2023-05-05T06:38:46.725Z,7.23
2023-05-05T06:41:13.679Z,5.43
2023-05-05T06:43:40.693Z,5.67
2023-05-05T06:46:07.749Z,5.03
2023-05-05T06:48:34.750Z,5.50
2023-05-05T06:51:06.185Z,5.50
2023-05-05T06:53:32.825Z,5.80
2023-05-05T06:55:59.482Z,6.40
2023-05-05T06:58:26.154Z,6.20
2023-05-05T07:00:52.841Z,6.73
2023-05-05T07:03:19.694Z,6.00
2023-05-05T07:05:46.443Z,6.57
2023-05-05T07:08:14.465Z,7.07
2023-05-05T07:10:41.134Z,6.43
2023-05-05T07:13:07.943Z,6.40
2023-05-05T07:15:34.843Z,6.13
2023-05-05T07:18:01.577Z,6.83
2023-05-05T07:20:28.353Z,7.53
2023-05-05T07:22:55.203Z,6.20
2023-05-05T07:25:23.306Z,5.53
2023-05-05T07:27:50.356Z,4.57
2023-05-05T07:30:19.176Z,5.90
2023-05-05T07:32:46.416Z,5.87
2023-05-05T07:35:13.531Z,5.93
2023-05-05T07:37:40.308Z,5.70
2023-05-05T07:40:08.396Z,5.47
2023-05-05T07:42:36.570Z,7.00
2023-05-05T07:45:03.573Z,5.80
2023-05-05T07:47:30.487Z,5.87
2023-05-05T07:49:57.687Z,6.27
2023-05-05T07:52:37.418Z,6.10
2023-05-05T07:55:11.595Z,6.87
2023-05-05T07:57:39.742Z,5.30
2023-05-05T08:00:07.685Z,5.80
2023-05-05T08:02:34.595Z,6.03
2023-05-05T08:05:01.285Z,5.70
2023-05-05T08:07:28.072Z,5.63
2023-05-05T08:09:54.800Z,5.47
2023-05-05T08:12:21.481Z,5.30
2023-05-05T08:14:49.528Z,6.40
2023-05-05T08:17:18.376Z,6.27
2023-05-05T08:19:46.200Z,6.63
2023-05-05T08:22:12.930Z,5.60
2023-05-05T08:24:39.611Z,5.60
2023-05-05T08:27:06.280Z,5.50
2023-05-05T08:29:32.991Z,5.83
2023-05-05T08:32:00.987Z,5.40
2023-05-05T08:34:27.751Z,5.50
2023-05-05T08:36:54.531Z,6.07
2023-05-05T08:39:21.228Z,4.77
2023-05-05T08:41:48.191Z,4.73
2023-05-05T08:44:14.897Z,5.70
2023-05-05T08:46:42.574Z,5.03
2023-05-05T08:49:14.723Z,5.40
2023-05-05T08:51:42.999Z,5.50
2023-05-05T08:54:14.607Z,5.00
2023-05-05T08:56:42.501Z,5.60
2023-05-05T08:59:10.685Z,4.73
2023-05-05T09:01:37.727Z,5.80
2023-05-05T09:04:04.867Z,4.73
2023-05-05T09:06:33.236Z,5.20
2023-05-05T09:09:00.582Z,5.10
2023-05-05T09:11:27.360Z,3.53
2023-05-05T09:13:55.312Z,4.90
2023-05-05T09:16:22.072Z,5.80
2023-05-05T09:18:48.831Z,6.07
2023-05-05T09:21:20.060Z,5.60
2023-05-05T09:24:08.714Z,5.07
2023-05-05T09:26:37.336Z,5.97
2023-05-05T09:29:04.817Z,5.63
2023-05-05T09:31:33.098Z,5.20
2023-05-05T09:34:00.470Z,5.47
2023-05-05T09:36:41.643Z,5.03
2023-05-05T09:39:09.956Z,4.53
2023-05-05T09:41:37.892Z,4.17
2023-05-05T09:44:05.081Z,4.07
2023-05-05T09:46:31.870Z,5.30
2023-05-05T09:49:11.981Z,5.53
2023-05-05T09:51:40.543Z,4.83
2023-05-05T09:54:09.062Z,5.70
2023-05-05T09:56:39.543Z,4.30
2023-05-05T09:59:09.677Z,4.90
2023-05-05T10:01:38.472Z,5.40
2023-05-05T10:04:05.706Z,4.50
2023-05-05T10:06:44.007Z,4.00
2023-05-05T10:09:12.336Z,4.37
2023-05-05T10:11:41.239Z,4.40
2023-05-05T10:14:11.462Z,5.20
2023-05-05T10:16:40.963Z,4.33
2023-05-05T10:19:09.460Z,4.20
2023-05-05T10:21:41.951Z,5.60
2023-05-05T10:27:52.173Z,6.17
2023-05-05T10:30:23.601Z,4.33
2023-05-05T10:33:34.895Z,4.83
2023-05-05T10:39:22.855Z,4.87
2023-05-05T10:41:51.503Z,4.40
2023-05-05T10:44:20.509Z,4.70
2023-05-05T10:46:47.656Z,4.80
2023-05-05T10:49:24.152Z,5.50
2023-05-05T10:51:56.105Z,4.87
2023-05-05T10:54:39.366Z,4.60
2023-05-05T10:57:09.819Z,4.43
2023-05-05T10:59:41.913Z,5.20
2023-05-05T11:02:21.876Z,4.10
2023-05-05T11:05:06.234Z,4.70
2023-05-05T11:07:32.958Z,4.47
2023-05-05T11:10:00.978Z,3.97
2023-05-05T11:12:28.006Z,5.10
2023-05-05T11:15:33.595Z,3.90
2023-05-05T11:18:03.208Z,4.43
2023-05-05T11:21:01.518Z,4.90
2023-05-05T11:23:28.920Z,4.43
2023-05-05T11:25:56.596Z,3.60
2023-05-05T11:28:24.922Z,4.10
2023-05-05T11:31:18.690Z,4.60
2023-05-05T11:33:45.691Z,3.80
2023-05-05T11:36:13.433Z,4.43
2023-05-05T11:38:56.029Z,4.10
2023-05-05T11:41:43.590Z,4.17
2023-05-05T11:44:11.171Z,3.53
2023-05-05T11:46:40.052Z,3.77
2023-05-05T11:49:07.342Z,4.30
2023-05-05T11:51:34.327Z,3.73
2023-05-05T11:54:01.088Z,4.07
2023-05-05T11:56:27.726Z,4.53
2023-05-05T11:59:10.417Z,3.37
2023-05-05T12:01:41.284Z,3.20
2023-05-05T12:04:11.412Z,3.87
2023-05-05T12:06:38.409Z,4.03
2023-05-05T12:09:06.726Z,3.43
2023-05-05T12:11:33.543Z,4.23
2023-05-05T12:14:09.400Z,4.60
2023-05-05T12:16:36.269Z,4.00
2023-05-05T12:19:05.180Z,4.03
2023-05-05T12:21:31.982Z,3.83
2023-05-05T12:23:58.776Z,3.90
2023-05-05T12:26:25.974Z,3.90
2023-05-05T12:28:52.779Z,3.00
2023-05-05T12:31:19.519Z,4.30
2023-05-05T12:33:46.892Z,4.03
2023-05-05T12:36:15.393Z,4.27
2023-05-05T12:38:42.131Z,4.00
2023-05-05T12:41:09.105Z,3.73
2023-05-05T12:43:36.136Z,3.77
2023-05-05T12:46:05.180Z,3.70
2023-05-05T12:48:32.684Z,4.33
2023-05-05T12:51:14.967Z,3.80
2023-05-05T12:53:41.790Z,4.10
2023-05-05T12:56:29.835Z,3.70
2023-05-05T12:58:56.637Z,4.70
2023-05-05T13:01:23.515Z,4.07
2023-05-05T13:04:11.100Z,3.70
2023-05-05T13:06:40.000Z,4.30
2023-05-05T13:09:07.358Z,3.80
2023-05-05T13:11:37.998Z,3.90
2023-05-05T13:14:06.403Z,3.80
2023-05-05T13:16:33.514Z,3.60
2023-05-05T13:19:00.238Z,4.50
2023-05-05T13:21:26.897Z,4.10
2023-05-05T13:24:04.927Z,3.80
2023-05-05T13:26:39.094Z,4.10
2023-05-05T13:29:05.792Z,4.20
2023-05-05T13:31:32.680Z,3.80
2023-05-05T13:33:59.492Z,4.27
2023-05-05T13:36:26.323Z,3.47
2023-05-05T13:38:53.116Z,4.37
2023-05-05T13:41:21.214Z,4.70
2023-05-05T13:43:47.945Z,3.70
2023-05-05T13:46:20.158Z,4.40
2023-05-05T13:48:47.215Z,4.70
2023-05-05T13:51:14.129Z,4.60
2023-05-05T13:53:40.771Z,5.00
2023-05-05T13:56:07.755Z,4.47
2023-05-05T13:58:37.603Z,4.40
2023-05-05T14:01:04.679Z,5.00
2023-05-05T14:03:31.567Z,4.07
2023-05-05T14:05:58.285Z,4.60
2023-05-05T14:08:25.037Z,4.97
2023-05-05T14:10:55.318Z,4.97
2023-05-05T14:13:22.096Z,4.57
2023-05-05T14:15:50.279Z,4.80
2023-05-05T14:18:16.975Z,4.43
2023-05-05T14:20:43.717Z,5.47
2023-05-05T14:23:10.469Z,5.30
2023-05-05T14:25:37.264Z,4.43
2023-05-05T14:28:04.076Z,4.17
2023-05-05T14:30:30.812Z,4.97
2023-05-05T14:32:59.006Z,4.77
2023-05-05T14:35:25.779Z,6.47
2023-05-05T14:37:52.610Z,4.30
2023-05-05T14:40:19.386Z,6.10
2023-05-05T14:42:46.042Z,5.53
2023-05-05T14:45:12.864Z,5.40
2023-05-05T14:47:39.537Z,5.10
2023-05-05T14:50:09.115Z,4.80
2023-05-05T14:52:36.201Z,4.40
2023-05-05T14:55:02.896Z,5.27
2023-05-05T14:57:30.697Z,4.37
2023-05-05T14:59:57.350Z,4.20
2023-05-05T15:02:24.164Z,3.97
2023-05-05T15:04:50.867Z,4.70
2023-05-05T15:07:19.017Z,3.87
2023-05-05T15:09:45.681Z,3.80
2023-05-05T15:12:12.359Z,4.00
2023-05-05T15:14:39.017Z,3.97
2023-05-05T15:17:05.687Z,3.83
2023-05-05T15:19:32.455Z,4.17
2023-05-05T15:21:59.151Z,4.60
2023-05-05T15:24:27.150Z,4.10
2023-05-05T15:26:53.956Z,5.03
2023-05-05T15:29:20.645Z,4.50
2023-05-05T15:31:47.333Z,3.63
2023-05-05T15:34:14.138Z,3.87
2023-05-05T15:36:40.825Z,4.67
2023-05-05T15:39:07.515Z,4.37
2023-05-05T15:41:35.596Z,5.00
2023-05-05T15:44:02.320Z,4.80
2023-05-05T15:46:31.778Z,4.87
2023-05-05T15:48:58.560Z,4.50
2023-05-05T15:51:25.326Z,4.33
2023-05-05T15:53:52.040Z,4.33
2023-05-05T15:56:18.884Z,4.83
2023-05-05T15:58:46.912Z,5.43
2023-05-05T16:01:13.692Z,4.30
2023-05-05T16:03:40.459Z,5.17
2023-05-05T16:06:07.706Z,5.50
2023-05-05T16:08:34.892Z,5.30
2023-05-05T16:11:01.589Z,5.80
2023-05-05T16:13:28.384Z,4.77
2023-05-05T16:15:56.417Z,4.47
2023-05-05T16:18:23.094Z,4.60
2023-05-05T16:20:49.882Z,4.67
2023-05-05T16:23:16.571Z,4.93
2023-05-05T16:25:43.296Z,5.00
2023-05-05T16:28:10.028Z,4.73
2023-05-05T16:30:36.743Z,4.90
2023-05-05T16:33:04.876Z,4.70
2023-05-05T16:35:31.655Z,4.60
2023-05-05T16:37:58.402Z,4.53
2023-05-05T16:40:25.088Z,4.80
2023-05-05T16:42:51.843Z,4.20
2023-05-05T16:45:18.609Z,4.80
2023-05-05T16:47:45.334Z,5.93
2023-05-05T16:50:13.551Z,6.43
2023-05-05T16:52:40.300Z,5.30
2023-05-05T16:55:07.782Z,4.60
2023-05-05T16:57:34.688Z,4.70
2023-05-05T17:00:01.482Z,4.40
2023-05-05T17:02:28.314Z,5.00
2023-05-05T17:04:54.990Z,4.10
2023-05-05T17:07:23.074Z,4.97
2023-05-05T17:09:49.794Z,4.33
2023-05-05T17:12:16.527Z,4.43
2023-05-05T17:14:43.198Z,4.20
2023-05-05T17:17:12.614Z,4.03
2023-05-05T17:19:39.435Z,4.57
2023-05-05T17:22:06.152Z,4.30
2023-05-05T17:24:34.233Z,4.67
2023-05-05T17:27:00.960Z,4.63
2023-05-05T17:29:27.647Z,4.40
2023-05-05T17:31:54.352Z,4.67
2023-05-05T17:34:21.117Z,4.23
2023-05-05T17:36:48.033Z,3.97
2023-05-05T17:39:14.685Z,4.17
2023-05-05T17:41:42.734Z,5.00
2023-05-05T17:44:09.414Z,5.37
2023-05-05T17:46:36.134Z,4.73
2023-05-05T17:49:02.837Z,3.80
2023-05-05T17:51:29.653Z,3.70
2023-05-05T17:53:56.327Z,5.77
2023-05-05T17:56:23.069Z,4.67
2023-05-05T17:58:51.133Z,4.70
2023-05-05T18:01:21.112Z,4.27
2023-05-05T18:03:47.910Z,4.93
2023-05-05T18:06:14.899Z,5.30
2023-05-05T18:08:41.742Z,4.57
2023-05-05T18:11:08.570Z,4.00
2023-05-05T18:13:35.292Z,4.67
2023-05-05T18:16:03.474Z,4.00
2023-05-05T18:18:30.290Z,4.27
2023-05-05T18:20:57.002Z,3.63
2023-05-05T18:23:23.717Z,4.90
2023-05-05T18:25:50.422Z,5.77
2023-05-05T18:28:17.167Z,4.83
2023-05-05T18:30:43.892Z,4.57
2023-05-05T18:33:11.915Z,5.00
2023-05-05T18:35:38.600Z,4.13
2023-05-05T18:38:05.336Z,4.50
2023-05-05T18:40:32.057Z,4.93
2023-05-05T18:42:58.747Z,4.47
2023-05-05T18:45:25.569Z,4.97
2023-05-05T18:47:52.333Z,4.20
2023-05-05T18:50:20.554Z,4.70
2023-05-05T18:52:47.299Z,4.67
2023-05-05T18:55:14.006Z,5.00
2023-05-05T18:57:40.673Z,4.97
2023-05-05T19:00:09.241Z,4.97
2023-05-05T19:02:36.050Z,4.60
2023-05-05T19:05:03.009Z,5.60
2023-05-05T19:07:35.422Z,5.87
2023-05-05T19:10:04.482Z,5.80
2023-05-05T19:12:31.150Z,5.90
2023-05-05T19:14:57.797Z,6.20
2023-05-05T19:17:24.821Z,6.37
2023-05-05T19:19:51.599Z,6.93
2023-05-05T19:22:18.263Z,6.27
2023-05-05T19:24:46.280Z,7.47
2023-05-05T19:29:39.920Z,7.73
2023-05-05T19:32:06.722Z,6.13
2023-05-05T19:34:33.547Z,6.03
2023-05-05T19:37:00.211Z,9.10
2023-05-05T19:39:26.907Z,8.47
2023-05-05T19:41:54.877Z,8.50
2023-05-05T19:44:21.571Z,8.30
2023-05-05T19:46:48.264Z,9.13
2023-05-05T19:49:14.905Z,9.40
2023-05-05T19:51:41.584Z,8.70
2023-05-05T19:54:08.254Z,9.17
2023-05-05T19:56:36.820Z,7.97
2023-05-05T19:59:04.939Z,8.60
2023-05-05T20:01:31.806Z,6.77
2023-05-05T20:03:58.695Z,5.90
2023-05-05T20:06:25.750Z,6.03
2023-05-05T20:08:52.494Z,4.53
2023-05-05T20:11:19.180Z,5.63
2023-05-05T20:13:45.813Z,5.30
2023-05-05T20:16:14.007Z,8.10
2023-05-05T20:18:40.700Z,6.67
2023-05-05T20:21:07.414Z,8.83
2023-05-05T20:23:34.365Z,9.30
2023-05-05T20:26:01.110Z,8.20
2023-05-05T20:28:27.775Z,9.57
2023-05-05T20:30:54.427Z,6.53
2023-05-05T20:33:22.432Z,5.97
2023-05-05T20:35:49.178Z,7.37
2023-05-05T20:38:15.865Z,8.00
2023-05-05T20:40:42.525Z,6.60
2023-05-05T20:43:09.215Z,6.97
2023-05-05T20:45:36.096Z,7.60
2023-05-05T20:48:04.238Z,7.30
2023-05-05T20:50:32.349Z,6.90
2023-05-05T20:52:59.444Z,9.60
2023-05-05T20:55:26.249Z,8.80
2023-05-05T20:57:52.921Z,9.73
2023-05-05T21:00:19.706Z,9.70
2023-05-05T21:02:46.509Z,8.77
2023-05-05T21:05:14.200Z,10.70
2023-05-05T21:07:42.195Z,7.80
2023-05-05T21:10:10.040Z,5.27
2023-05-05T21:12:37.110Z,6.30
2023-05-05T21:15:04.321Z,6.93
2023-05-05T21:17:31.077Z,10.20
2023-05-05T21:19:57.854Z,8.60
2023-05-05T21:22:24.642Z,8.53
2023-05-05T21:24:54.368Z,8.20
2023-05-05T21:27:21.124Z,9.43
2023-05-05T21:29:50.458Z,9.10
2023-05-05T21:32:17.334Z,8.87
2023-05-05T21:34:44.101Z,7.83
2023-05-05T21:37:10.798Z,9.47
2023-05-05T21:39:37.549Z,9.60
2023-05-05T21:42:05.769Z,9.20
2023-05-05T21:44:32.453Z,8.40
2023-05-05T21:46:59.129Z,9.07
2023-05-05T21:49:25.894Z,7.23
2023-05-05T21:51:52.536Z,7.60
2023-05-05T21:54:19.266Z,7.40
2023-05-05T21:56:45.969Z,7.03
2023-05-05T21:59:15.269Z,6.80
2023-05-05T22:01:43.279Z,6.90
2023-05-05T22:04:09.972Z,5.83
2023-05-05T22:06:36.675Z,6.57
2023-05-05T22:09:03.615Z,5.93
2023-05-05T22:11:30.284Z,5.80
2023-05-05T22:13:56.994Z,6.07
2023-05-05T22:16:25.129Z,5.20
2023-05-05T22:18:51.944Z,5.43
2023-05-05T22:21:18.634Z,5.97
2023-05-05T22:23:45.585Z,5.50
2023-05-05T22:26:12.230Z,6.00
2023-05-05T22:28:39.037Z,6.20
2023-05-05T22:31:05.846Z,5.60
2023-05-05T22:33:33.900Z,6.03
2023-05-05T22:36:00.681Z,6.60
2023-05-05T22:38:27.405Z,5.20
2023-05-05T22:40:54.069Z,6.20
2023-05-05T22:43:20.718Z,6.10
2023-05-05T22:45:47.523Z,6.13
2023-05-05T22:48:14.263Z,6.67
2023-05-05T22:50:42.546Z,6.20
2023-05-05T22:53:09.281Z,6.23
2023-05-05T22:55:36.010Z,6.90
2023-05-05T22:58:02.691Z,5.97
2023-05-05T23:00:29.587Z,5.13
2023-05-05T23:02:56.342Z,6.67
2023-05-05T23:05:23.350Z,7.00
2023-05-05T23:07:51.417Z,5.57
2023-05-05T23:10:18.298Z,6.07
2023-05-05T23:12:45.085Z,5.50
2023-05-05T23:15:12.091Z,6.37
2023-05-05T23:17:39.029Z,6.27
2023-05-05T23:20:07.240Z,6.20
2023-05-05T23:22:33.914Z,6.13
2023-05-05T23:25:01.910Z,6.73
2023-05-05T23:27:28.597Z,7.03
2023-05-05T23:29:55.286Z,6.43
2023-05-05T23:32:21.930Z,6.10
2023-05-05T23:34:48.638Z,6.53
2023-05-05T23:37:15.373Z,5.67
2023-05-05T23:39:42.354Z,6.37
2023-05-05T23:42:10.424Z,6.60
2023-05-05T23:44:37.114Z,5.77
2023-05-05T23:47:04.604Z,6.70
2023-05-05T23:49:31.292Z,5.57
2023-05-05T23:51:58.035Z,5.87
2023-05-05T23:54:24.780Z,6.87
2023-05-05T23:56:51.455Z,6.00
2023-05-05T23:59:19.496Z,7.03
